sensor_id;sensor_type;location;lat;lon;timestamp;temperature;humidity
49242;DHT22;35079;52.704;13.814;2023-04-12T00:02:07;2.90;99.90
49242;DHT22;35079;52.704;13.814;2023-04-12T00:04:33;3.10;99.90
49242;DHT22;35079;52.704;13.814;2023-04-12T00:07:00;2.90;99.90
49242;DHT22;35079;52.704;13.814;2023-04-12T00:09:27;2.90;99.90
49242;DHT22;35079;52.704;13.814;2023-04-12T00:11:59;2.90;99.90
49242;DHT22;35079;52.704;13.814;2023-04-12T00:14:26;3.00;99.90
49242;DHT22;35079;52.704;13.814;2023-04-12T00:16:51;3.00;99.90
49242;DHT22;35079;52.704;13.814;2023-04-12T00:19:17;3.00;99.90
49242;DHT22;35079;52.704;13.814;2023-04-12T00:21:43;3.00;99.90
49242;DHT22;35079;52.704;13.814;2023-04-12T00:24:09;3.00;99.90
49242;DHT22;35079;52.704;13.814;2023-04-12T00:26:35;2.90;99.90
49242;DHT22;35079;52.704;13.814;2023-04-12T00:29:00;3.20;99.90
49242;DHT22;35079;52.704;13.814;2023-04-12T00:31:26;3.00;99.90
49242;DHT22;35079;52.704;13.814;2023-04-12T00:33:52;3.00;99.90
49242;DHT22;35079;52.704;13.814;2023-04-12T00:36:17;3.00;99.90
49242;DHT22;35079;52.704;13.814;2023-04-12T00:38:43;3.00;99.90
49242;DHT22;35079;52.704;13.814;2023-04-12T00:41:13;3.00;99.90
49242;DHT22;35079;52.704;13.814;2023-04-12T00:43:42;2.90;99.90
49242;DHT22;35079;52.704;13.814;2023-04-12T00:46:08;3.00;99.90
49242;DHT22;35079;52.704;13.814;2023-04-12T00:48:34;2.90;99.90
49242;DHT22;35079;52.704;13.814;2023-04-12T00:51:01;3.00;99.90
49242;DHT22;35079;52.704;13.814;2023-04-12T00:53:28;2.80;99.90
49242;DHT22;35079;52.704;13.814;2023-04-12T00:55:54;3.00;99.90
49242;DHT22;35079;52.704;13.814;2023-04-12T00:58:23;3.00;99.90
49242;DHT22;35079;52.704;13.814;2023-04-12T01:00:49;2.90;99.90
49242;DHT22;35079;52.704;13.814;2023-04-12T01:03:18;2.80;99.90
49242;DHT22;35079;52.704;13.814;2023-04-12T01:06:13;3.00;99.90
49242;DHT22;35079;52.704;13.814;2023-04-12T01:09:02;2.80;99.90
49242;DHT22;35079;52.704;13.814;2023-04-12T01:11:44;2.90;99.90
49242;DHT22;35079;52.704;13.814;2023-04-12T01:14:19;2.80;99.90
49242;DHT22;35079;52.704;13.814;2023-04-12T01:16:52;2.90;99.90
49242;DHT22;35079;52.704;13.814;2023-04-12T01:19:34;2.90;99.90
49242;DHT22;35079;52.704;13.814;2023-04-12T01:22:16;2.80;99.90
49242;DHT22;35079;52.704;13.814;2023-04-12T01:27:47;2.70;99.90
49242;DHT22;35079;52.704;13.814;2023-04-12T01:30:16;2.60;99.90
49242;DHT22;35079;52.704;13.814;2023-04-12T01:32:45;2.60;99.90
49242;DHT22;35079;52.704;13.814;2023-04-12T01:35:12;2.60;99.90
49242;DHT22;35079;52.704;13.814;2023-04-12T01:37:39;2.50;99.90
49242;DHT22;35079;52.704;13.814;2023-04-12T01:40:06;2.50;99.90
49242;DHT22;35079;52.704;13.814;2023-04-12T01:42:35;2.40;99.90
49242;DHT22;35079;52.704;13.814;2023-04-12T01:45:02;2.40;99.90
49242;DHT22;35079;52.704;13.814;2023-04-12T01:47:28;2.40;99.90
49242;DHT22;35079;52.704;13.814;2023-04-12T01:52:30;2.40;99.90
49242;DHT22;35079;52.704;13.814;2023-04-12T01:54:57;2.50;99.90
49242;DHT22;35079;52.704;13.814;2023-04-12T01:57:26;2.40;99.90
49242;DHT22;35079;52.704;13.814;2023-04-12T01:59:52;2.40;99.90
49242;DHT22;35079;52.704;13.814;2023-04-12T02:02:20;2.50;99.90
49242;DHT22;35079;52.704;13.814;2023-04-12T02:04:46;2.50;99.90
49242;DHT22;35079;52.704;13.814;2023-04-12T02:07:13;2.50;99.90
49242;DHT22;35079;52.704;13.814;2023-04-12T02:09:40;2.50;99.90
49242;DHT22;35079;52.704;13.814;2023-04-12T02:12:07;2.50;99.90
49242;DHT22;35079;52.704;13.814;2023-04-12T02:14:33;2.60;99.90
49242;DHT22;35079;52.704;13.814;2023-04-12T02:16:58;2.60;99.90
49242;DHT22;35079;52.704;13.814;2023-04-12T02:19:26;2.60;99.90
49242;DHT22;35079;52.704;13.814;2023-04-12T02:21:52;2.60;99.90
49242;DHT22;35079;52.704;13.814;2023-04-12T02:24:18;2.60;99.90
49242;DHT22;35079;52.704;13.814;2023-04-12T02:26:44;2.60;99.90
49242;DHT22;35079;52.704;13.814;2023-04-12T02:29:11;2.60;99.90
49242;DHT22;35079;52.704;13.814;2023-04-12T02:31:37;2.50;99.90
49242;DHT22;35079;52.704;13.814;2023-04-12T02:34:04;2.50;99.90
49242;DHT22;35079;52.704;13.814;2023-04-12T02:36:30;2.40;99.90
49242;DHT22;35079;52.704;13.814;2023-04-12T02:38:56;2.40;99.90
49242;DHT22;35079;52.704;13.814;2023-04-12T02:41:23;2.30;99.90
49242;DHT22;35079;52.704;13.814;2023-04-12T02:43:50;2.30;99.90
49242;DHT22;35079;52.704;13.814;2023-04-12T02:46:21;2.30;99.90
49242;DHT22;35079;52.704;13.814;2023-04-12T02:48:47;2.30;99.90
49242;DHT22;35079;52.704;13.814;2023-04-12T02:51:13;2.20;99.90
49242;DHT22;35079;52.704;13.814;2023-04-12T02:53:38;2.20;99.90
49242;DHT22;35079;52.704;13.814;2023-04-12T02:56:05;2.10;99.90
49242;DHT22;35079;52.704;13.814;2023-04-12T02:58:31;2.10;99.90
49242;DHT22;35079;52.704;13.814;2023-04-12T03:00:58;2.10;99.90
49242;DHT22;35079;52.704;13.814;2023-04-12T03:03:26;2.10;99.90
49242;DHT22;35079;52.704;13.814;2023-04-12T03:05:53;2.00;99.90
49242;DHT22;35079;52.704;13.814;2023-04-12T03:08:20;2.00;99.90
49242;DHT22;35079;52.704;13.814;2023-04-12T03:10:46;2.10;99.90
49242;DHT22;35079;52.704;13.814;2023-04-12T03:13:12;2.10;99.90
49242;DHT22;35079;52.704;13.814;2023-04-12T03:15:37;1.90;99.90
49242;DHT22;35079;52.704;13.814;2023-04-12T03:18:03;1.90;99.90
49242;DHT22;35079;52.704;13.814;2023-04-12T03:20:29;2.00;99.90
49242;DHT22;35079;52.704;13.814;2023-04-12T03:22:55;2.00;99.90
49242;DHT22;35079;52.704;13.814;2023-04-12T03:25:20;2.00;99.90
49242;DHT22;35079;52.704;13.814;2023-04-12T03:27:46;2.00;99.90
49242;DHT22;35079;52.704;13.814;2023-04-12T03:30:12;2.00;99.90
49242;DHT22;35079;52.704;13.814;2023-04-12T03:32:38;1.90;99.90
49242;DHT22;35079;52.704;13.814;2023-04-12T03:35:05;2.00;99.90
49242;DHT22;35079;52.704;13.814;2023-04-12T03:37:32;1.90;99.90
49242;DHT22;35079;52.704;13.814;2023-04-12T03:39:58;1.90;99.90
49242;DHT22;35079;52.704;13.814;2023-04-12T03:42:24;1.90;99.90
49242;DHT22;35079;52.704;13.814;2023-04-12T03:44:49;1.90;99.90
49242;DHT22;35079;52.704;13.814;2023-04-12T03:47:17;1.90;99.90
49242;DHT22;35079;52.704;13.814;2023-04-12T03:49:43;2.00;99.90
49242;DHT22;35079;52.704;13.814;2023-04-12T03:52:09;2.00;99.90
49242;DHT22;35079;52.704;13.814;2023-04-12T03:54:35;2.00;99.90
49242;DHT22;35079;52.704;13.814;2023-04-12T03:57:01;2.10;99.90
49242;DHT22;35079;52.704;13.814;2023-04-12T03:59:30;1.90;99.90
49242;DHT22;35079;52.704;13.814;2023-04-12T04:01:57;1.90;99.90
49242;DHT22;35079;52.704;13.814;2023-04-12T04:04:24;1.90;99.90
49242;DHT22;35079;52.704;13.814;2023-04-12T04:06:50;1.80;99.90
49242;DHT22;35079;52.704;13.814;2023-04-12T04:09:16;1.80;99.90
49242;DHT22;35079;52.704;13.814;2023-04-12T04:11:42;1.90;99.90
49242;DHT22;35079;52.704;13.814;2023-04-12T04:14:07;1.80;99.90
49242;DHT22;35079;52.704;13.814;2023-04-12T04:16:33;1.70;99.90
49242;DHT22;35079;52.704;13.814;2023-04-12T04:18:59;1.80;99.90
49242;DHT22;35079;52.704;13.814;2023-04-12T04:21:25;1.80;99.90
49242;DHT22;35079;52.704;13.814;2023-04-12T04:23:51;1.70;99.90
49242;DHT22;35079;52.704;13.814;2023-04-12T04:26:17;1.70;99.90
49242;DHT22;35079;52.704;13.814;2023-04-12T04:28:43;1.60;99.90
49242;DHT22;35079;52.704;13.814;2023-04-12T04:31:12;1.70;99.90
49242;DHT22;35079;52.704;13.814;2023-04-12T04:33:41;1.60;99.90
49242;DHT22;35079;52.704;13.814;2023-04-12T04:36:07;1.60;99.90
49242;DHT22;35079;52.704;13.814;2023-04-12T04:38:33;1.60;99.90
49242;DHT22;35079;52.704;13.814;2023-04-12T04:41:00;1.60;99.90
49242;DHT22;35079;52.704;13.814;2023-04-12T04:43:27;1.70;99.90
49242;DHT22;35079;52.704;13.814;2023-04-12T04:45:55;1.70;99.90
49242;DHT22;35079;52.704;13.814;2023-04-12T04:48:21;1.80;99.90
49242;DHT22;35079;52.704;13.814;2023-04-12T04:50:47;1.90;99.90
49242;DHT22;35079;52.704;13.814;2023-04-12T04:53:16;2.00;99.90
49242;DHT22;35079;52.704;13.814;2023-04-12T04:55:42;2.20;99.90
49242;DHT22;35079;52.704;13.814;2023-04-12T04:58:08;2.20;99.90
49242;DHT22;35079;52.704;13.814;2023-04-12T05:00:34;2.10;99.90
49242;DHT22;35079;52.704;13.814;2023-04-12T05:03:00;2.10;99.90
49242;DHT22;35079;52.704;13.814;2023-04-12T05:05:27;2.20;99.90
49242;DHT22;35079;52.704;13.814;2023-04-12T05:07:53;2.40;99.90
49242;DHT22;35079;52.704;13.814;2023-04-12T05:10:20;2.40;99.90
49242;DHT22;35079;52.704;13.814;2023-04-12T05:12:45;2.50;99.90
49242;DHT22;35079;52.704;13.814;2023-04-12T05:15:11;2.50;99.90
49242;DHT22;35079;52.704;13.814;2023-04-12T05:17:36;2.70;99.90
49242;DHT22;35079;52.704;13.814;2023-04-12T05:20:02;2.70;99.90
49242;DHT22;35079;52.704;13.814;2023-04-12T05:22:33;2.80;99.90
49242;DHT22;35079;52.704;13.814;2023-04-12T05:24:59;3.00;99.90
49242;DHT22;35079;52.704;13.814;2023-04-12T05:27:25;2.90;99.90
49242;DHT22;35079;52.704;13.814;2023-04-12T05:29:55;3.10;99.90
49242;DHT22;35079;52.704;13.814;2023-04-12T05:32:21;3.10;99.90
49242;DHT22;35079;52.704;13.814;2023-04-12T05:34:47;3.20;99.90
49242;DHT22;35079;52.704;13.814;2023-04-12T05:37:13;3.40;99.90
49242;DHT22;35079;52.704;13.814;2023-04-12T05:39:39;3.50;99.90
49242;DHT22;35079;52.704;13.814;2023-04-12T05:42:05;3.60;99.90
49242;DHT22;35079;52.704;13.814;2023-04-12T05:44:34;3.70;99.90
49242;DHT22;35079;52.704;13.814;2023-04-12T05:47:02;3.90;99.90
49242;DHT22;35079;52.704;13.814;2023-04-12T05:49:29;4.10;99.90
49242;DHT22;35079;52.704;13.814;2023-04-12T05:51:56;4.10;99.90
49242;DHT22;35079;52.704;13.814;2023-04-12T05:54:21;4.20;99.90
49242;DHT22;35079;52.704;13.814;2023-04-12T05:56:47;4.40;99.90
49242;DHT22;35079;52.704;13.814;2023-04-12T05:59:12;4.60;99.90
49242;DHT22;35079;52.704;13.814;2023-04-12T06:01:38;4.40;99.90
49242;DHT22;35079;52.704;13.814;2023-04-12T06:04:07;4.70;99.90
49242;DHT22;35079;52.704;13.814;2023-04-12T06:06:32;4.60;99.90
49242;DHT22;35079;52.704;13.814;2023-04-12T06:08:58;4.90;99.90
49242;DHT22;35079;52.704;13.814;2023-04-12T06:11:28;5.00;99.90
49242;DHT22;35079;52.704;13.814;2023-04-12T06:13:54;5.20;99.90
49242;DHT22;35079;52.704;13.814;2023-04-12T06:16:20;5.50;99.90
49242;DHT22;35079;52.704;13.814;2023-04-12T06:18:45;5.60;99.90
49242;DHT22;35079;52.704;13.814;2023-04-12T06:21:12;5.70;99.90
49242;DHT22;35079;52.704;13.814;2023-04-12T06:23:37;5.90;99.90
49242;DHT22;35079;52.704;13.814;2023-04-12T06:26:03;6.00;99.90
49242;DHT22;35079;52.704;13.814;2023-04-12T06:28:29;6.10;99.90
49242;DHT22;35079;52.704;13.814;2023-04-12T06:30:54;6.30;99.90
49242;DHT22;35079;52.704;13.814;2023-04-12T06:33:20;6.40;99.90
49242;DHT22;35079;52.704;13.814;2023-04-12T06:35:48;6.60;99.90
49242;DHT22;35079;52.704;13.814;2023-04-12T06:38:15;6.90;99.90
49242;DHT22;35079;52.704;13.814;2023-04-12T06:40:41;7.10;99.90
49242;DHT22;35079;52.704;13.814;2023-04-12T06:43:07;7.30;99.90
49242;DHT22;35079;52.704;13.814;2023-04-12T06:45:32;7.40;99.90
49242;DHT22;35079;52.704;13.814;2023-04-12T06:47:58;7.50;99.90
49242;DHT22;35079;52.704;13.814;2023-04-12T06:50:24;7.70;99.90
49242;DHT22;35079;52.704;13.814;2023-04-12T06:52:50;7.80;99.90
49242;DHT22;35079;52.704;13.814;2023-04-12T06:55:16;8.00;99.90
49242;DHT22;35079;52.704;13.814;2023-04-12T06:57:42;8.20;99.90
49242;DHT22;35079;52.704;13.814;2023-04-12T07:00:09;8.40;99.90
49242;DHT22;35079;52.704;13.814;2023-04-12T07:02:35;8.40;99.90
49242;DHT22;35079;52.704;13.814;2023-04-12T07:05:01;8.40;99.90
49242;DHT22;35079;52.704;13.814;2023-04-12T07:07:27;8.50;99.90
49242;DHT22;35079;52.704;13.814;2023-04-12T07:09:53;8.60;99.90
49242;DHT22;35079;52.704;13.814;2023-04-12T07:12:18;8.80;99.90
49242;DHT22;35079;52.704;13.814;2023-04-12T07:14:44;9.00;99.90
49242;DHT22;35079;52.704;13.814;2023-04-12T07:17:09;9.20;99.90
49242;DHT22;35079;52.704;13.814;2023-04-12T07:19:35;9.40;99.90
49242;DHT22;35079;52.704;13.814;2023-04-12T07:22:01;9.70;99.90
49242;DHT22;35079;52.704;13.814;2023-04-12T07:24:27;9.90;99.90
49242;DHT22;35079;52.704;13.814;2023-04-12T07:26:53;10.10;99.90
49242;DHT22;35079;52.704;13.814;2023-04-12T07:29:19;10.60;99.90
49242;DHT22;35079;52.704;13.814;2023-04-12T07:31:45;10.80;99.90
49242;DHT22;35079;52.704;13.814;2023-04-12T07:34:11;11.20;99.90
49242;DHT22;35079;52.704;13.814;2023-04-12T07:36:39;11.40;99.90
49242;DHT22;35079;52.704;13.814;2023-04-12T07:39:07;11.30;99.90
49242;DHT22;35079;52.704;13.814;2023-04-12T07:41:36;11.30;99.90
49242;DHT22;35079;52.704;13.814;2023-04-12T07:44:03;11.20;99.90
49242;DHT22;35079;52.704;13.814;2023-04-12T07:46:29;11.00;99.90
49242;DHT22;35079;52.704;13.814;2023-04-12T07:48:55;10.80;99.90
49242;DHT22;35079;52.704;13.814;2023-04-12T07:51:20;10.90;99.90
49242;DHT22;35079;52.704;13.814;2023-04-12T07:53:46;11.00;99.90
49242;DHT22;35079;52.704;13.814;2023-04-12T07:56:13;11.10;99.90
49242;DHT22;35079;52.704;13.814;2023-04-12T07:58:39;11.40;99.90
49242;DHT22;35079;52.704;13.814;2023-04-12T08:01:05;11.70;99.90
49242;DHT22;35079;52.704;13.814;2023-04-12T08:03:31;11.90;99.90
49242;DHT22;35079;52.704;13.814;2023-04-12T08:05:57;12.50;99.90
49242;DHT22;35079;52.704;13.814;2023-04-12T08:08:23;12.80;99.90
49242;DHT22;35079;52.704;13.814;2023-04-12T08:10:50;12.90;99.90
49242;DHT22;35079;52.704;13.814;2023-04-12T08:13:16;13.20;99.90
49242;DHT22;35079;52.704;13.814;2023-04-12T08:15:42;13.60;99.90
49242;DHT22;35079;52.704;13.814;2023-04-12T08:18:11;14.20;99.90
49242;DHT22;35079;52.704;13.814;2023-04-12T08:20:37;14.60;99.90
49242;DHT22;35079;52.704;13.814;2023-04-12T08:23:05;15.20;99.90
49242;DHT22;35079;52.704;13.814;2023-04-12T08:25:30;15.80;99.90
49242;DHT22;35079;52.704;13.814;2023-04-12T08:27:56;16.20;99.90
49242;DHT22;35079;52.704;13.814;2023-04-12T08:30:22;16.30;97.00
49242;DHT22;35079;52.704;13.814;2023-04-12T08:32:52;15.80;94.80
49242;DHT22;35079;52.704;13.814;2023-04-12T08:35:18;16.10;94.30
49242;DHT22;35079;52.704;13.814;2023-04-12T08:37:44;16.20;92.50
49242;DHT22;35079;52.704;13.814;2023-04-12T08:40:10;16.10;91.90
49242;DHT22;35079;52.704;13.814;2023-04-12T08:42:36;16.00;91.50
49242;DHT22;35079;52.704;13.814;2023-04-12T08:45:09;16.30;91.80
49242;DHT22;35079;52.704;13.814;2023-04-12T08:47:37;16.80;92.40
49242;DHT22;35079;52.704;13.814;2023-04-12T08:50:06;17.20;92.50
49242;DHT22;35079;52.704;13.814;2023-04-12T08:52:34;17.30;90.00
49242;DHT22;35079;52.704;13.814;2023-04-12T08:55:05;16.70;87.90
49242;DHT22;35079;52.704;13.814;2023-04-12T08:57:31;16.70;86.40
49242;DHT22;35079;52.704;13.814;2023-04-12T08:59:59;16.70;87.80
49242;DHT22;35079;52.704;13.814;2023-04-12T09:02:25;17.20;85.10
49242;DHT22;35079;52.704;13.814;2023-04-12T09:04:51;17.50;83.80
49242;DHT22;35079;52.704;13.814;2023-04-12T09:07:21;17.60;82.60
49242;DHT22;35079;52.704;13.814;2023-04-12T09:09:48;17.40;74.50
49242;DHT22;35079;52.704;13.814;2023-04-12T09:12:15;17.30;73.60
49242;DHT22;35079;52.704;13.814;2023-04-12T09:14:42;17.70;72.10
49242;DHT22;35079;52.704;13.814;2023-04-12T09:17:41;17.90;68.40
49242;DHT22;35079;52.704;13.814;2023-04-12T09:22:43;18.40;73.10
49242;DHT22;35079;52.704;13.814;2023-04-12T09:25:10;18.60;65.80
49242;DHT22;35079;52.704;13.814;2023-04-12T09:27:46;18.30;69.30
49242;DHT22;35079;52.704;13.814;2023-04-12T09:30:14;18.80;68.10
49242;DHT22;35079;52.704;13.814;2023-04-12T09:32:40;19.40;70.40
49242;DHT22;35079;52.704;13.814;2023-04-12T09:35:07;19.70;63.60
49242;DHT22;35079;52.704;13.814;2023-04-12T09:37:32;19.60;59.90
49242;DHT22;35079;52.704;13.814;2023-04-12T09:40:03;19.60;61.20
49242;DHT22;35079;52.704;13.814;2023-04-12T09:42:30;19.60;60.20
49242;DHT22;35079;52.704;13.814;2023-04-12T09:44:56;19.50;57.50
49242;DHT22;35079;52.704;13.814;2023-04-12T09:47:35;18.70;61.20
49242;DHT22;35079;52.704;13.814;2023-04-12T09:50:03;19.50;64.60
49242;DHT22;35079;52.704;13.814;2023-04-12T09:52:35;19.50;63.90
49242;DHT22;35079;52.704;13.814;2023-04-12T09:55:02;20.10;58.90
49242;DHT22;35079;52.704;13.814;2023-04-12T09:57:35;20.50;55.60
49242;DHT22;35079;52.704;13.814;2023-04-12T10:00:02;20.50;54.40
49242;DHT22;35079;52.704;13.814;2023-04-12T10:02:29;20.10;53.80
49242;DHT22;35079;52.704;13.814;2023-04-12T10:04:56;19.90;54.80
49242;DHT22;35079;52.704;13.814;2023-04-12T10:07:22;20.40;58.80
49242;DHT22;35079;52.704;13.814;2023-04-12T10:09:48;20.50;54.40
49242;DHT22;35079;52.704;13.814;2023-04-12T10:12:14;20.90;54.60
49242;DHT22;35079;52.704;13.814;2023-04-12T10:14:41;20.60;55.10
49242;DHT22;35079;52.704;13.814;2023-04-12T10:17:08;21.20;53.90
49242;DHT22;35079;52.704;13.814;2023-04-12T10:19:36;21.60;53.80
49242;DHT22;35079;52.704;13.814;2023-04-12T10:22:03;22.20;53.70
49242;DHT22;35079;52.704;13.814;2023-04-12T10:24:29;21.80;50.10
49242;DHT22;35079;52.704;13.814;2023-04-12T10:26:56;22.30;48.30
49242;DHT22;35079;52.704;13.814;2023-04-12T10:29:31;21.90;47.80
49242;DHT22;35079;52.704;13.814;2023-04-12T10:32:20;21.20;49.80
49242;DHT22;35079;52.704;13.814;2023-04-12T10:34:55;21.30;47.30
49242;DHT22;35079;52.704;13.814;2023-04-12T10:37:21;20.40;50.80
49242;DHT22;35079;52.704;13.814;2023-04-12T10:39:54;20.50;51.30
49242;DHT22;35079;52.704;13.814;2023-04-12T10:42:27;21.10;50.30
49242;DHT22;35079;52.704;13.814;2023-04-12T10:50:27;21.30;49.90
49242;DHT22;35079;52.704;13.814;2023-04-12T10:55:41;22.20;47.60
49242;DHT22;35079;52.704;13.814;2023-04-12T10:58:08;22.00;48.50
49242;DHT22;35079;52.704;13.814;2023-04-12T11:03:23;21.10;47.90
49242;DHT22;35079;52.704;13.814;2023-04-12T11:06:02;21.70;46.80
49242;DHT22;35079;52.704;13.814;2023-04-12T11:08:29;21.40;47.70
49242;DHT22;35079;52.704;13.814;2023-04-12T11:11:02;22.00;47.20
49242;DHT22;35079;52.704;13.814;2023-04-12T11:13:37;22.10;48.70
49242;DHT22;35079;52.704;13.814;2023-04-12T11:16:04;22.70;46.10
49242;DHT22;35079;52.704;13.814;2023-04-12T11:18:32;22.80;43.90
49242;DHT22;35079;52.704;13.814;2023-04-12T11:21:01;22.10;45.70
49242;DHT22;35079;52.704;13.814;2023-04-12T11:23:27;22.60;46.00
49242;DHT22;35079;52.704;13.814;2023-04-12T11:25:53;22.50;44.20
49242;DHT22;35079;52.704;13.814;2023-04-12T11:28:19;21.70;44.80
49242;DHT22;35079;52.704;13.814;2023-04-12T11:30:52;21.80;45.10
49242;DHT22;35079;52.704;13.814;2023-04-12T11:33:37;22.40;45.90
49242;DHT22;35079;52.704;13.814;2023-04-12T11:36:08;23.00;44.90
49242;DHT22;35079;52.704;13.814;2023-04-12T11:38:36;23.10;45.80
49242;DHT22;35079;52.704;13.814;2023-04-12T11:41:03;23.40;45.30
49242;DHT22;35079;52.704;13.814;2023-04-12T11:43:31;23.40;42.40
49242;DHT22;35079;52.704;13.814;2023-04-12T11:45:58;22.10;44.80
49242;DHT22;35079;52.704;13.814;2023-04-12T11:48:27;22.80;43.20
49242;DHT22;35079;52.704;13.814;2023-04-12T11:50:53;22.40;44.80
49242;DHT22;35079;52.704;13.814;2023-04-12T11:53:26;22.30;43.30
49242;DHT22;35079;52.704;13.814;2023-04-12T11:55:55;22.40;46.20
49242;DHT22;35079;52.704;13.814;2023-04-12T11:58:24;23.10;46.00
49242;DHT22;35079;52.704;13.814;2023-04-12T12:00:50;23.60;43.20
49242;DHT22;35079;52.704;13.814;2023-04-12T12:03:16;23.70;43.00
49242;DHT22;35079;52.704;13.814;2023-04-12T12:05:43;23.40;42.70
49242;DHT22;35079;52.704;13.814;2023-04-12T12:08:09;23.40;43.40
49242;DHT22;35079;52.704;13.814;2023-04-12T12:10:37;23.20;44.60
49242;DHT22;35079;52.704;13.814;2023-04-12T12:13:07;22.90;43.00
49242;DHT22;35079;52.704;13.814;2023-04-12T12:15:33;22.10;46.30
49242;DHT22;35079;52.704;13.814;2023-04-12T12:17:59;21.90;45.90
49242;DHT22;35079;52.704;13.814;2023-04-12T12:20:26;22.70;44.80
49242;DHT22;35079;52.704;13.814;2023-04-12T12:22:52;22.50;44.30
49242;DHT22;35079;52.704;13.814;2023-04-12T12:25:18;22.20;44.00
49242;DHT22;35079;52.704;13.814;2023-04-12T12:27:44;21.80;44.80
49242;DHT22;35079;52.704;13.814;2023-04-12T12:30:16;21.70;44.70
49242;DHT22;35079;52.704;13.814;2023-04-12T12:32:42;20.80;45.40
49242;DHT22;35079;52.704;13.814;2023-04-12T12:35:11;19.20;47.70
49242;DHT22;35079;52.704;13.814;2023-04-12T12:37:38;18.70;49.30
49242;DHT22;35079;52.704;13.814;2023-04-12T12:40:12;18.20;48.90
49242;DHT22;35079;52.704;13.814;2023-04-12T12:42:49;17.50;49.60
49242;DHT22;35079;52.704;13.814;2023-04-12T12:45:17;17.50;51.50
49242;DHT22;35079;52.704;13.814;2023-04-12T12:47:50;17.30;51.50
49242;DHT22;35079;52.704;13.814;2023-04-12T12:50:17;17.00;52.50
49242;DHT22;35079;52.704;13.814;2023-04-12T12:52:46;17.10;52.50
49242;DHT22;35079;52.704;13.814;2023-04-12T12:55:12;16.70;51.60
49242;DHT22;35079;52.704;13.814;2023-04-12T12:57:39;16.50;52.60
49242;DHT22;35079;52.704;13.814;2023-04-12T13:00:05;16.30;54.00
49242;DHT22;35079;52.704;13.814;2023-04-12T13:02:31;16.30;52.70
49242;DHT22;35079;52.704;13.814;2023-04-12T13:04:56;16.30;53.00
49242;DHT22;35079;52.704;13.814;2023-04-12T13:07:22;16.20;52.90
49242;DHT22;35079;52.704;13.814;2023-04-12T13:09:48;16.10;54.20
49242;DHT22;35079;52.704;13.814;2023-04-12T13:12:14;16.00;53.50
49242;DHT22;35079;52.704;13.814;2023-04-12T13:14:40;16.00;53.70
49242;DHT22;35079;52.704;13.814;2023-04-12T13:17:06;16.00;53.70
49242;DHT22;35079;52.704;13.814;2023-04-12T13:19:32;15.80;54.50
49242;DHT22;35079;52.704;13.814;2023-04-12T13:21:58;16.00;53.30
49242;DHT22;35079;52.704;13.814;2023-04-12T13:24:24;16.10;55.10
49242;DHT22;35079;52.704;13.814;2023-04-12T13:26:50;16.00;54.50
49242;DHT22;35079;52.704;13.814;2023-04-12T13:29:16;16.00;52.30
49242;DHT22;35079;52.704;13.814;2023-04-12T13:31:41;15.90;52.50
49242;DHT22;35079;52.704;13.814;2023-04-12T13:34:07;15.80;53.70
49242;DHT22;35079;52.704;13.814;2023-04-12T13:36:33;15.70;53.60
49242;DHT22;35079;52.704;13.814;2023-04-12T13:38:58;15.80;54.90
49242;DHT22;35079;52.704;13.814;2023-04-12T13:41:24;15.90;53.50
49242;DHT22;35079;52.704;13.814;2023-04-12T13:43:50;16.20;55.00
49242;DHT22;35079;52.704;13.814;2023-04-12T13:46:15;16.40;54.30
49242;DHT22;35079;52.704;13.814;2023-04-12T13:48:41;16.60;52.50
49242;DHT22;35079;52.704;13.814;2023-04-12T13:51:07;16.70;51.90
49242;DHT22;35079;52.704;13.814;2023-04-12T13:53:33;17.00;51.10
49242;DHT22;35079;52.704;13.814;2023-04-12T13:55:59;17.20;50.20
49242;DHT22;35079;52.704;13.814;2023-04-12T13:58:24;16.80;50.20
49242;DHT22;35079;52.704;13.814;2023-04-12T14:00:50;16.30;51.80
49242;DHT22;35079;52.704;13.814;2023-04-12T14:03:18;16.20;53.60
49242;DHT22;35079;52.704;13.814;2023-04-12T14:05:44;15.80;54.50
49242;DHT22;35079;52.704;13.814;2023-04-12T14:08:09;15.80;55.10
49242;DHT22;35079;52.704;13.814;2023-04-12T14:10:35;16.10;53.80
49242;DHT22;35079;52.704;13.814;2023-04-12T14:13:01;16.30;54.60
49242;DHT22;35079;52.704;13.814;2023-04-12T14:15:26;16.00;52.50
49242;DHT22;35079;52.704;13.814;2023-04-12T14:17:52;16.00;53.20
49242;DHT22;35079;52.704;13.814;2023-04-12T14:20:19;15.90;52.90
49242;DHT22;35079;52.704;13.814;2023-04-12T14:22:44;15.80;53.80
49242;DHT22;35079;52.704;13.814;2023-04-12T14:25:10;15.90;53.30
49242;DHT22;35079;52.704;13.814;2023-04-12T14:27:36;15.90;54.90
49242;DHT22;35079;52.704;13.814;2023-04-12T14:30:03;15.80;54.50
49242;DHT22;35079;52.704;13.814;2023-04-12T14:32:29;15.90;54.30
49242;DHT22;35079;52.704;13.814;2023-04-12T14:34:54;15.90;53.30
49242;DHT22;35079;52.704;13.814;2023-04-12T14:37:20;15.80;54.60
49242;DHT22;35079;52.704;13.814;2023-04-12T14:39:46;15.50;52.90
49242;DHT22;35079;52.704;13.814;2023-04-12T14:42:11;15.50;52.80
49242;DHT22;35079;52.704;13.814;2023-04-12T14:44:37;15.20;54.10
49242;DHT22;35079;52.704;13.814;2023-04-12T14:47:02;15.20;55.30
49242;DHT22;35079;52.704;13.814;2023-04-12T14:49:28;15.20;54.00
49242;DHT22;35079;52.704;13.814;2023-04-12T14:51:55;15.10;54.90
49242;DHT22;35079;52.704;13.814;2023-04-12T14:54:21;15.10;54.20
49242;DHT22;35079;52.704;13.814;2023-04-12T14:56:47;15.20;54.50
49242;DHT22;35079;52.704;13.814;2023-04-12T14:59:13;15.00;54.70
49242;DHT22;35079;52.704;13.814;2023-04-12T15:01:40;14.90;54.80
49242;DHT22;35079;52.704;13.814;2023-04-12T15:04:05;14.80;55.70
49242;DHT22;35079;52.704;13.814;2023-04-12T15:06:31;14.90;55.60
49242;DHT22;35079;52.704;13.814;2023-04-12T15:09:01;14.70;56.00
49242;DHT22;35079;52.704;13.814;2023-04-12T15:11:29;14.80;55.40
49242;DHT22;35079;52.704;13.814;2023-04-12T15:13:54;14.80;56.80
49242;DHT22;35079;52.704;13.814;2023-04-12T15:16:20;14.70;55.70
49242;DHT22;35079;52.704;13.814;2023-04-12T15:18:47;14.70;56.80
49242;DHT22;35079;52.704;13.814;2023-04-12T15:21:14;14.60;56.40
49242;DHT22;35079;52.704;13.814;2023-04-12T15:23:40;14.70;56.50
49242;DHT22;35079;52.704;13.814;2023-04-12T15:26:06;14.40;56.90
49242;DHT22;35079;52.704;13.814;2023-04-12T15:28:34;14.40;58.00
49242;DHT22;35079;52.704;13.814;2023-04-12T15:31:00;14.50;57.00
49242;DHT22;35079;52.704;13.814;2023-04-12T15:33:26;14.40;57.60
49242;DHT22;35079;52.704;13.814;2023-04-12T15:35:53;14.60;57.00
49242;DHT22;35079;52.704;13.814;2023-04-12T15:38:25;14.60;56.20
49242;DHT22;35079;52.704;13.814;2023-04-12T15:41:00;14.40;57.20
49242;DHT22;35079;52.704;13.814;2023-04-12T15:43:27;14.50;56.60